首页
METAR-TAF:

METAR-TAF

机场 :

真纳国际机场

卡拉奇, 巴基斯坦

纬度: 24-54N, 经度: 067-08E, 海拔: 21米

当前天气观测

该预报发布于40分钟前的11:55 UTC
风速15节,风向西南
温度 31°C
湿度 63%
气压 998 hPa
能見度: 5000
散云层高于2000英尺

METAR: OPKC 181155Z 22015KT 5000 FU SCT020 31/23 Q0998 NOSIG

时间: 17:35 (12:35 UTC)

预报

该预报发布于2小时和35分钟前的10:00 UTC
预报有效从18日的 12点(UTC)到 19日的 18点(UTC)
风速5节,风向西转西南,有时为15节阵风
能見度: 5000
多云层高于2000英尺
阴天层高于10000英尺
成为
从 18日的 20点(UTC)到 18日的 22点(UTC)
风速13节,风向西转西南
能見度: 4000
散云层高于2000英尺
多云层高于10000英尺
短暂存在
从 19日的 00点(UTC)到 19日的 04点(UTC)
风速12节,风向西转西南
能見度: 3000
多云层高于2000英尺
阴天层高于10000英尺
毛毛雨
从 19日的 0600点(UTC)
风速8节,风向西转西南,有时为18节阵风
能見度: 6000
散云层高于3000英尺
多云层高于10000英尺

TAF: OPKC 181000Z 1812/1918 24005G15KT 5000 HZ BKN020 OVC100 BECMG 1820/1822 25013KT 4000 FU SCT020 BKN100 TEMPO 1900/1904 25012KT 3000 DZ BKN020 OVC100 FM190600 24008G18KT 6000 SCT030 BKN100

超过4000个机场的气象观测和天气预报(METAR&TAF报告)。

可查询的气象台以黄色和红色小点在地图上表示。

将鼠标移到小点上方,可查看气象台名称。

然后点击查看天气观测和预报。

如需切换地图:点击带黑十字的绿色按钮放大地图;点击带横线的绿色按钮缩小地图;或者点击绿色箭头查看邻近地区的地图。


METAR-TAF: